createdAt,value
2023-04-12T00:00:22.864Z,4.38
2023-04-12T00:03:25.738Z,3.80
2023-04-12T00:06:32.661Z,4.78
2023-04-12T00:09:36.503Z,4.88
2023-04-12T00:12:41.644Z,4.23
2023-04-12T00:15:44.537Z,4.68
2023-04-12T00:18:47.433Z,5.88
2023-04-12T00:21:50.300Z,6.28
2023-04-12T00:24:53.197Z,7.05
2023-04-12T00:27:57.370Z,5.17
2023-04-12T00:31:00.113Z,5.50
2023-04-12T00:34:03.044Z,4.97
2023-04-12T00:37:05.768Z,6.90
2023-04-12T00:40:10.804Z,5.18
2023-04-12T00:43:19.073Z,5.03
2023-04-12T00:46:21.974Z,6.50
2023-04-12T00:49:24.933Z,5.30
2023-04-12T00:52:29.112Z,5.05
2023-04-12T00:55:32.234Z,6.35
2023-04-12T00:58:36.650Z,4.50
2023-04-12T01:01:41.519Z,6.65
2023-04-12T01:04:45.075Z,5.03
2023-04-12T01:07:54.512Z,4.28
2023-04-12T01:11:05.344Z,6.25
2023-04-12T01:14:16.497Z,4.83
2023-04-12T01:17:25.031Z,4.97
2023-04-12T01:20:31.332Z,4.28
2023-04-12T01:24:02.870Z,5.43
2023-04-12T01:27:13.635Z,5.82
2023-04-12T01:30:20.592Z,6.17
2023-04-12T01:33:31.278Z,6.03
2023-04-12T01:36:35.607Z,6.38
2023-04-12T01:39:38.691Z,6.32
2023-04-12T01:42:41.383Z,6.00
2023-04-12T01:45:46.274Z,5.80
2023-04-12T01:48:51.266Z,5.65
2023-04-12T01:51:59.444Z,6.68
2023-04-12T01:55:06.074Z,5.88
2023-04-12T01:58:11.630Z,6.05
2023-04-12T02:01:18.423Z,5.63
2023-04-12T02:04:22.479Z,5.22
2023-04-12T02:07:25.354Z,5.82
2023-04-12T02:10:31.987Z,8.63
2023-04-12T02:13:34.674Z,7.35
2023-04-12T02:16:39.579Z,6.30
2023-04-12T02:19:42.288Z,5.88
2023-04-12T02:22:45.138Z,5.20
2023-04-12T02:25:47.866Z,6.68
2023-04-12T02:28:50.707Z,5.85
2023-04-12T02:31:54.909Z,6.67
2023-04-12T02:34:59.216Z,5.55
2023-04-12T02:38:02.026Z,6.93
2023-04-12T02:41:04.871Z,5.65
2023-04-12T02:44:07.726Z,6.20
2023-04-12T02:47:11.886Z,5.43
2023-04-12T02:50:14.724Z,5.68
2023-04-12T02:53:17.875Z,5.70
2023-04-12T02:56:21.826Z,6.40
2023-04-12T02:59:25.252Z,5.60
2023-04-12T03:02:29.703Z,5.20
2023-04-12T03:05:32.752Z,6.57
2023-04-12T03:08:36.077Z,6.03
2023-04-12T03:11:39.298Z,6.03
2023-04-12T03:14:42.012Z,6.00
2023-04-12T03:17:46.284Z,6.07
2023-04-12T03:20:49.116Z,6.00
2023-04-12T03:23:52.583Z,7.38
2023-04-12T03:26:55.922Z,7.22
2023-04-12T03:29:58.664Z,6.40
2023-04-12T03:33:03.192Z,5.10
2023-04-12T03:36:06.813Z,5.75
2023-04-12T03:39:09.507Z,5.28
2023-04-12T03:45:32.698Z,5.57
2023-04-12T03:48:37.902Z,5.77
2023-04-12T03:51:42.662Z,5.53
2023-04-12T03:54:45.559Z,5.25
2023-04-12T03:57:48.602Z,6.47
2023-04-12T04:00:51.652Z,5.57
2023-04-12T04:03:56.122Z,6.07
2023-04-12T04:06:59.330Z,5.95
2023-04-12T04:10:02.769Z,5.53
2023-04-12T04:13:05.458Z,7.22
2023-04-12T04:16:11.018Z,6.65
2023-04-12T04:19:15.687Z,5.83
2023-04-12T04:22:21.660Z,6.60
2023-04-12T04:25:29.826Z,6.65
2023-04-12T04:28:35.170Z,6.22
2023-04-12T04:31:38.051Z,7.13
2023-04-12T04:34:42.327Z,5.60
2023-04-12T04:37:45.489Z,7.70
2023-04-12T04:40:53.250Z,6.93
2023-04-12T04:43:56.264Z,6.07
2023-04-12T04:47:00.691Z,9.02
2023-04-12T04:50:05.309Z,7.13
2023-04-12T04:53:08.024Z,6.70
2023-04-12T04:56:11.498Z,7.95
2023-04-12T04:59:14.261Z,7.28
2023-04-12T05:02:17.349Z,8.43
2023-04-12T05:05:23.251Z,7.70
2023-04-12T05:08:26.596Z,7.68
2023-04-12T05:11:29.446Z,7.05
2023-04-12T05:14:45.417Z,8.02
2023-04-12T05:17:50.608Z,7.35
2023-04-12T05:20:54.726Z,7.17
2023-04-12T05:23:57.574Z,8.63
2023-04-12T05:27:00.324Z,8.40
2023-04-12T05:30:03.149Z,7.95
2023-04-12T05:33:05.846Z,8.75
2023-04-12T05:36:10.823Z,8.47
2023-04-12T05:39:13.880Z,7.50
2023-04-12T05:42:16.619Z,7.93
2023-04-12T05:45:19.355Z,9.38
2023-04-12T05:48:23.263Z,10.43
2023-04-12T05:51:39.747Z,9.57
2023-04-12T05:54:43.541Z,10.32
2023-04-12T05:57:47.518Z,9.95
2023-04-12T06:00:50.353Z,10.05
2023-04-12T06:03:53.202Z,8.65
2023-04-12T06:06:57.842Z,8.73
2023-04-12T06:10:00.583Z,8.27
2023-04-12T06:13:03.468Z,10.05
2023-04-12T06:16:07.031Z,9.88
2023-04-12T06:19:10.933Z,11.00
2023-04-12T06:22:15.027Z,8.63
2023-04-12T06:25:17.790Z,7.88
2023-04-12T06:28:20.673Z,9.02
2023-04-12T06:31:23.566Z,8.45
2023-04-12T06:34:26.575Z,9.70
2023-04-12T06:37:30.718Z,9.10
2023-04-12T06:40:33.661Z,9.90
2023-04-12T06:43:36.963Z,10.90
2023-04-12T06:46:39.894Z,8.50
2023-04-12T06:49:42.870Z,8.80
2023-04-12T06:52:48.346Z,10.00
2023-04-12T06:55:51.146Z,10.25
2023-04-12T06:58:53.874Z,7.55
2023-04-12T07:01:56.748Z,7.10
2023-04-12T07:04:59.446Z,6.43
2023-04-12T07:08:03.610Z,5.20
2023-04-12T07:11:20.049Z,5.05
2023-04-12T07:14:24.098Z,5.90
2023-04-12T07:17:27.995Z,7.28
2023-04-12T07:20:30.881Z,6.90
2023-04-12T07:23:35.107Z,6.77
2023-04-12T07:26:37.869Z,7.70
2023-04-12T07:29:40.702Z,5.20
2023-04-12T07:32:43.503Z,4.72
2023-04-12T07:35:46.281Z,4.97
2023-04-12T07:38:55.146Z,5.90
2023-04-12T07:41:58.712Z,6.97
2023-04-12T07:45:01.581Z,6.18
2023-04-12T07:48:04.788Z,5.57
2023-04-12T07:51:07.771Z,4.78
2023-04-12T07:54:31.672Z,6.07
2023-04-12T07:57:34.534Z,4.45
2023-04-12T08:00:37.447Z,6.83
2023-04-12T08:03:40.276Z,6.85
2023-04-12T08:06:43.446Z,5.82
2023-04-12T08:09:48.319Z,4.50
2023-04-12T08:12:51.189Z,5.67
2023-04-12T08:15:54.120Z,4.80
2023-04-12T08:18:57.615Z,7.07
2023-04-12T08:22:00.479Z,5.35
2023-04-12T08:25:04.786Z,6.07
2023-04-12T08:28:08.514Z,4.33
2023-04-12T08:31:11.636Z,5.67
2023-04-12T08:34:14.555Z,4.55
2023-04-12T08:37:18.030Z,6.28
2023-04-12T08:40:22.779Z,3.72
2023-04-12T08:43:29.792Z,6.40
2023-04-12T08:46:32.707Z,4.97
2023-04-12T08:49:36.205Z,4.95
2023-04-12T08:52:39.581Z,7.40
2023-04-12T08:55:46.240Z,7.50
2023-04-12T08:58:49.860Z,3.53
2023-04-12T09:01:53.819Z,4.67
2023-04-12T09:04:56.986Z,7.78
2023-04-12T09:08:00.070Z,4.72
2023-04-12T09:11:23.223Z,5.90
2023-04-12T09:14:27.386Z,4.40
2023-04-12T09:17:30.405Z,4.57
2023-04-12T09:20:33.484Z,6.57
2023-04-12T09:23:37.276Z,5.38
2023-04-12T09:26:41.380Z,7.32
2023-04-12T09:29:45.567Z,5.13
2023-04-12T09:32:49.522Z,5.55
2023-04-12T09:36:01.498Z,4.97
2023-04-12T09:39:05.191Z,5.88
2023-04-12T09:42:25.493Z,8.73
2023-04-12T09:45:35.766Z,6.53
2023-04-12T09:48:39.146Z,5.00
2023-04-12T09:51:42.097Z,5.95
2023-04-12T09:54:46.443Z,3.75
2023-04-12T09:57:52.516Z,7.27
2023-04-12T10:00:58.108Z,5.27
2023-04-12T10:04:01.859Z,6.30
2023-04-12T10:07:05.900Z,6.07
2023-04-12T10:10:12.218Z,3.88
2023-04-12T10:13:18.532Z,6.13
2023-04-12T10:16:22.426Z,5.07
2023-04-12T10:19:27.016Z,6.88
2023-04-12T10:22:30.282Z,5.93
2023-04-12T10:25:34.118Z,5.35
2023-04-12T10:28:38.390Z,5.50
2023-04-12T10:31:42.185Z,4.50
2023-04-12T10:34:44.996Z,5.00
2023-04-12T10:38:01.357Z,4.68
2023-04-12T10:41:18.465Z,5.15
2023-04-12T10:44:28.560Z,3.97
2023-04-12T10:48:03.898Z,4.63
2023-04-12T10:51:22.897Z,4.75
2023-04-12T10:54:35.481Z,5.53
2023-04-12T10:57:47.206Z,6.20
2023-04-12T11:01:18.244Z,5.07
2023-04-12T11:04:22.698Z,6.57
2023-04-12T11:07:40.449Z,6.18
2023-04-12T11:10:47.149Z,4.55
2023-04-12T11:13:49.987Z,4.82
2023-04-12T11:17:25.937Z,4.70
2023-04-12T11:20:29.068Z,4.83
2023-04-12T11:23:32.338Z,4.50
2023-04-12T11:26:37.708Z,5.05
2023-04-12T11:29:40.908Z,5.57
2023-04-12T11:32:47.739Z,4.07
2023-04-12T11:35:50.613Z,6.50
2023-04-12T11:38:56.751Z,4.47
2023-04-12T11:42:02.400Z,4.40
2023-04-12T11:45:15.412Z,4.40
2023-04-12T11:48:21.925Z,3.63
2023-04-12T11:51:29.894Z,4.47
2023-04-12T11:54:35.147Z,3.55
2023-04-12T11:57:40.080Z,7.55
2023-04-12T12:00:44.992Z,6.88
2023-04-12T12:03:50.505Z,5.50
2023-04-12T12:06:54.222Z,4.77
2023-04-12T12:09:57.462Z,4.65
2023-04-12T12:13:01.123Z,6.32
2023-04-12T12:16:08.505Z,4.65
2023-04-12T12:19:12.608Z,6.17
2023-04-12T12:22:17.530Z,3.57
2023-04-12T12:25:20.821Z,5.97
2023-04-12T12:28:24.938Z,6.10
2023-04-12T12:31:29.120Z,2.88
2023-04-12T12:34:35.109Z,3.63
2023-04-12T12:37:37.873Z,3.57
2023-04-12T12:40:40.797Z,5.78
2023-04-12T12:43:46.547Z,3.65
2023-04-12T12:46:55.531Z,3.88
2023-04-12T12:50:01.207Z,6.43
2023-04-12T12:53:06.108Z,4.97
2023-04-12T12:56:10.208Z,5.38
2023-04-12T12:59:12.965Z,5.55
2023-04-12T13:02:18.210Z,6.50
2023-04-12T13:05:23.334Z,4.13
2023-04-12T13:08:26.988Z,3.97
2023-04-12T13:11:29.706Z,4.35
2023-04-12T13:14:32.637Z,4.38
2023-04-12T13:17:35.690Z,5.28
2023-04-12T13:20:40.014Z,4.27
2023-04-12T13:23:42.771Z,5.07
2023-04-12T13:26:46.054Z,5.55
2023-04-12T13:29:48.785Z,6.07
2023-04-12T13:32:51.521Z,5.00
2023-04-12T13:35:55.651Z,2.47
2023-04-12T13:38:58.469Z,5.13
2023-04-12T13:42:02.177Z,3.08
2023-04-12T13:45:05.479Z,4.60
2023-04-12T13:48:08.294Z,3.83
2023-04-12T13:51:12.636Z,5.10
2023-04-12T13:54:17.362Z,5.13
2023-04-12T13:57:20.105Z,6.70
2023-04-12T14:00:22.897Z,5.25
2023-04-12T14:03:25.813Z,5.07
2023-04-12T14:06:30.129Z,5.67
2023-04-12T14:09:33.822Z,5.57
2023-04-12T14:12:36.729Z,7.93
2023-04-12T14:15:39.587Z,3.67
2023-04-12T14:18:42.286Z,4.18
2023-04-12T14:21:47.808Z,5.20
2023-04-12T14:24:50.637Z,5.70
2023-04-12T14:27:53.587Z,3.75
2023-04-12T14:30:56.354Z,4.80
2023-04-12T14:33:59.518Z,3.80
2023-04-12T14:37:03.777Z,3.77
2023-04-12T14:40:08.484Z,4.00
2023-04-12T14:43:11.534Z,3.92
2023-04-12T14:46:14.327Z,4.13
2023-04-12T14:49:17.268Z,3.30
2023-04-12T14:52:21.328Z,3.83
2023-04-12T14:55:24.143Z,4.23
2023-04-12T14:58:29.301Z,3.63
2023-04-12T15:01:32.177Z,4.50
2023-04-12T15:04:35.078Z,5.78
2023-04-12T15:07:39.574Z,5.23
2023-04-12T15:10:42.897Z,4.93
2023-04-12T15:13:45.806Z,4.10
2023-04-12T15:16:50.445Z,3.88
2023-04-12T15:19:53.448Z,4.10
2023-04-12T15:22:57.623Z,5.10
2023-04-12T15:26:01.904Z,5.30
2023-04-12T15:29:04.785Z,6.30
2023-04-12T15:32:08.959Z,5.10
2023-04-12T15:38:22.997Z,4.80
2023-04-12T15:41:26.564Z,5.03
2023-04-12T15:44:31.979Z,4.85
2023-04-12T15:47:34.849Z,5.03
2023-04-12T15:50:37.711Z,6.97
2023-04-12T15:53:43.400Z,5.70
2023-04-12T15:56:46.246Z,4.80
2023-04-12T15:59:50.200Z,5.68
2023-04-12T16:02:54.725Z,5.82
2023-04-12T16:05:57.815Z,6.10
2023-04-12T16:09:02.448Z,5.90
2023-04-12T16:12:05.885Z,6.33
2023-04-12T16:15:09.503Z,5.00
2023-04-12T16:18:12.655Z,7.30
2023-04-12T16:21:20.209Z,7.25
2023-04-12T16:24:24.597Z,6.13
2023-04-12T16:27:29.417Z,5.80
2023-04-12T16:30:32.787Z,5.80
2023-04-12T16:33:35.850Z,7.35
2023-04-12T16:36:39.284Z,6.00
2023-04-12T16:39:44.394Z,4.67
2023-04-12T16:42:47.119Z,6.20
2023-04-12T16:45:49.878Z,5.68
2023-04-12T16:48:52.602Z,6.00
2023-04-12T16:51:55.558Z,7.28
2023-04-12T16:55:00.553Z,6.70
2023-04-12T16:58:03.559Z,7.18
2023-04-12T17:01:07.903Z,5.72
2023-04-12T17:04:10.680Z,6.10
2023-04-12T17:07:13.646Z,6.95
2023-04-12T17:10:19.511Z,6.20
2023-04-12T17:13:22.396Z,6.82
2023-04-12T17:16:25.546Z,9.15
2023-04-12T17:19:28.356Z,5.65
2023-04-12T17:22:31.616Z,4.90
2023-04-12T17:25:35.850Z,4.93
2023-04-12T17:28:39.654Z,4.57
2023-04-12T17:31:42.870Z,5.22
2023-04-12T17:34:45.546Z,7.20
2023-04-12T17:37:48.733Z,6.18
2023-04-12T17:40:52.946Z,5.23
2023-04-12T17:43:55.863Z,6.03
2023-04-12T17:46:58.964Z,6.20
2023-04-12T17:50:01.693Z,5.15
2023-04-12T17:53:04.473Z,5.45
2023-04-12T17:56:09.822Z,5.03
2023-04-12T17:59:12.549Z,6.00
2023-04-12T18:02:16.959Z,5.45
2023-04-12T18:05:19.894Z,7.05
2023-04-12T18:08:24.034Z,6.70
2023-04-12T18:11:28.508Z,7.50
2023-04-12T18:14:31.358Z,6.35
2023-04-12T18:17:34.251Z,7.35
2023-04-12T18:20:37.058Z,8.38
2023-04-12T18:23:39.936Z,7.80
2023-04-12T18:26:44.603Z,13.57
2023-04-12T18:29:47.305Z,7.38
2023-04-12T18:32:50.282Z,6.13
2023-04-12T18:35:54.319Z,19.13
2023-04-12T18:38:57.204Z,12.35
2023-04-12T18:42:01.536Z,8.87
2023-04-12T18:45:04.873Z,7.20
2023-04-12T18:48:08.548Z,7.65
2023-04-12T18:51:11.663Z,7.30
2023-04-12T18:54:17.501Z,7.25
2023-04-12T18:57:21.967Z,8.60
2023-04-12T19:00:24.981Z,6.93
2023-04-12T19:03:28.677Z,7.55
2023-04-12T19:06:31.496Z,8.80
2023-04-12T19:09:34.388Z,7.35
2023-04-12T19:12:38.493Z,6.93
2023-04-12T19:15:41.349Z,6.50
2023-04-12T19:18:44.213Z,6.88
2023-04-12T19:21:47.311Z,7.40
2023-04-12T19:24:51.009Z,7.07
2023-04-12T19:27:55.076Z,7.60
2023-04-12T19:30:58.434Z,6.15
2023-04-12T19:34:01.133Z,7.38
2023-04-12T19:37:03.901Z,5.68
2023-04-12T19:40:08.923Z,6.78
2023-04-12T19:43:14.163Z,7.57
2023-04-12T19:46:17.761Z,7.63
2023-04-12T19:49:22.126Z,8.10
2023-04-12T19:52:27.198Z,6.65
2023-04-12T19:55:30.591Z,6.28
2023-04-12T19:58:34.896Z,5.87
2023-04-12T20:01:47.644Z,6.03
2023-04-12T20:04:50.794Z,5.45
2023-04-12T20:07:55.723Z,8.02
2023-04-12T20:10:58.657Z,6.13
2023-04-12T20:14:02.974Z,12.37
2023-04-12T20:17:06.924Z,8.88
2023-04-12T20:20:14.124Z,8.05
2023-04-12T20:23:17.095Z,6.85
2023-04-12T20:26:21.174Z,6.95
2023-04-12T20:29:25.462Z,5.63
2023-04-12T20:32:28.283Z,6.72
2023-04-12T20:35:31.550Z,6.53
2023-04-12T20:38:35.850Z,6.03
2023-04-12T20:41:39.229Z,6.10
2023-04-12T20:44:43.443Z,5.70
2023-04-12T20:47:46.216Z,5.65
2023-04-12T20:50:50.473Z,6.03
2023-04-12T20:53:53.233Z,6.15
2023-04-12T20:56:56.073Z,5.80
2023-04-12T21:00:00.542Z,7.60
2023-04-12T21:03:04.170Z,6.60
2023-04-12T21:06:09.169Z,7.78
2023-04-12T21:09:11.954Z,6.07
2023-04-12T21:12:14.753Z,6.38
2023-04-12T21:15:22.147Z,8.27
2023-04-12T21:18:25.028Z,5.53
2023-04-12T21:21:28.612Z,7.18
2023-04-12T21:24:35.357Z,6.03
2023-04-12T21:27:38.511Z,8.10
2023-04-12T21:30:45.230Z,5.93
2023-04-12T21:33:48.128Z,6.15
2023-04-12T21:36:51.018Z,6.78
2023-04-12T21:39:53.758Z,6.10
2023-04-12T21:42:57.238Z,6.88
2023-04-12T21:46:01.507Z,5.97
2023-04-12T21:49:05.075Z,6.40
2023-04-12T21:52:08.280Z,6.90
2023-04-12T21:55:11.068Z,6.05
2023-04-12T21:58:14.024Z,7.28
2023-04-12T22:01:18.314Z,7.40
2023-04-12T22:04:21.375Z,7.38
2023-04-12T22:07:24.264Z,6.72
2023-04-12T22:10:27.260Z,8.05
2023-04-12T22:13:30.876Z,7.30
2023-04-12T22:16:35.195Z,6.10
2023-04-12T22:19:56.471Z,7.60
2023-04-12T22:22:59.258Z,7.13
2023-04-12T22:26:01.969Z,8.82
2023-04-12T22:29:06.185Z,6.37
2023-04-12T22:32:10.374Z,7.73
2023-04-12T22:35:13.100Z,7.78
2023-04-12T22:38:16.335Z,8.13
2023-04-12T22:41:19.923Z,6.72
2023-04-12T22:44:23.091Z,8.17
2023-04-12T22:47:28.239Z,9.60
2023-04-12T22:50:30.992Z,8.60
2023-04-12T22:53:34.393Z,7.53
2023-04-12T22:56:42.009Z,7.20
2023-04-12T22:59:44.863Z,9.57
2023-04-12T23:02:50.420Z,8.37
2023-04-12T23:05:53.498Z,8.85
2023-04-12T23:08:57.475Z,8.88
2023-04-12T23:12:00.208Z,8.02
2023-04-12T23:15:06.126Z,8.43
2023-04-12T23:18:10.836Z,7.33
2023-04-12T23:21:13.672Z,6.85
2023-04-12T23:24:16.693Z,7.50
2023-04-12T23:27:20.245Z,7.57
2023-04-12T23:30:26.431Z,8.03
2023-04-12T23:33:30.641Z,7.47
2023-04-12T23:36:34.926Z,7.70
2023-04-12T23:39:37.819Z,8.10
2023-04-12T23:42:40.524Z,7.30
2023-04-12T23:45:43.455Z,9.07
2023-04-12T23:48:47.686Z,9.90
2023-04-12T23:51:50.577Z,6.95
2023-04-12T23:54:53.421Z,8.00
2023-04-12T23:57:56.100Z,7.85
